sensor_id;sensor_type;location;lat;lon;timestamp;pressure;altitude;pressure_sealevel;temperature;humidity
37298;BME280;30517;51.932;4.278;2024-01-27T00:00:54;103511.78;;;7.58;71.21
37298;BME280;30517;51.932;4.278;2024-01-27T00:03:35;103493.97;;;7.68;70.86
37298;BME280;30517;51.932;4.278;2024-01-27T00:06:16;103492.94;;;7.48;70.76
37298;BME280;30517;51.932;4.278;2024-01-27T00:08:57;103502.44;;;7.63;71.04
37298;BME280;30517;51.932;4.278;2024-01-27T00:11:38;103513.59;;;7.42;71.19
37298;BME280;30517;51.932;4.278;2024-01-27T00:14:18;103510.41;;;7.64;71.29
37298;BME280;30517;51.932;4.278;2024-01-27T00:16:59;103497.50;;;7.52;70.79
37298;BME280;30517;51.932;4.278;2024-01-27T00:19:40;103518.63;;;7.38;70.68
37298;BME280;30517;51.932;4.278;2024-01-27T00:22:21;103482.91;;;7.41;70.67
37298;BME280;30517;51.932;4.278;2024-01-27T00:25:02;103504.56;;;7.21;71.82
37298;BME280;30517;51.932;4.278;2024-01-27T00:27:43;103498.53;;;7.38;71.88
37298;BME280;30517;51.932;4.278;2024-01-27T00:30:24;103489.00;;;7.24;71.64
37298;BME280;30517;51.932;4.278;2024-01-27T00:33:06;103514.50;;;7.59;71.33
37298;BME280;30517;51.932;4.278;2024-01-27T00:35:47;103512.47;;;7.53;70.81
37298;BME280;30517;51.932;4.278;2024-01-27T00:38:28;103504.75;;;7.57;70.40
37298;BME280;30517;51.932;4.278;2024-01-27T00:41:09;103529.19;;;7.23;72.18
37298;BME280;30517;51.932;4.278;2024-01-27T00:43:52;103523.47;;;7.46;71.26
37298;BME280;30517;51.932;4.278;2024-01-27T00:46:33;103506.81;;;7.13;71.67
37298;BME280;30517;51.932;4.278;2024-01-27T00:49:14;103514.84;;;7.49;71.04
37298;BME280;30517;51.932;4.278;2024-01-27T00:51:55;103517.88;;;7.57;70.76
37298;BME280;30517;51.932;4.278;2024-01-27T00:54:36;103449.38;;;7.19;70.24
37298;BME280;30517;51.932;4.278;2024-01-27T00:57:17;103491.22;;;7.16;71.71
37298;BME280;30517;51.932;4.278;2024-01-27T00:59:58;103520.41;;;7.55;70.76
37298;BME280;30517;51.932;4.278;2024-01-27T01:02:39;103526.34;;;7.35;71.52
37298;BME280;30517;51.932;4.278;2024-01-27T01:05:21;103521.66;;;7.45;70.68
37298;BME280;30517;51.932;4.278;2024-01-27T01:08:01;103536.84;;;7.35;70.89
37298;BME280;30517;51.932;4.278;2024-01-27T01:10:43;103532.97;;;7.28;71.36
37298;BME280;30517;51.932;4.278;2024-01-27T01:13:24;103527.28;;;7.04;72.19
37298;BME280;30517;51.932;4.278;2024-01-27T01:16:05;103516.00;;;7.21;71.34
37298;BME280;30517;51.932;4.278;2024-01-27T01:18:48;103524.28;;;7.45;70.63
37298;BME280;30517;51.932;4.278;2024-01-27T01:21:29;103528.72;;;7.46;70.77
37298;BME280;30517;51.932;4.278;2024-01-27T01:24:09;103532.47;;;7.19;71.87
37298;BME280;30517;51.932;4.278;2024-01-27T01:26:50;103529.19;;;7.39;70.72
37298;BME280;30517;51.932;4.278;2024-01-27T01:29:31;103514.75;;;7.31;70.59
37298;BME280;30517;51.932;4.278;2024-01-27T01:32:12;103517.53;;;7.34;70.38
37298;BME280;30517;51.932;4.278;2024-01-27T01:34:54;103527.41;;;7.22;70.81
37298;BME280;30517;51.932;4.278;2024-01-27T01:37:34;103468.22;;;6.79;71.98
37298;BME280;30517;51.932;4.278;2024-01-27T01:40:15;103520.72;;;6.96;72.02
37298;BME280;30517;51.932;4.278;2024-01-27T01:42:58;103518.84;;;7.09;70.98
37298;BME280;30517;51.932;4.278;2024-01-27T01:45:39;103527.44;;;7.07;72.17
37298;BME280;30517;51.932;4.278;2024-01-27T01:48:20;103517.22;;;7.28;71.02
37298;BME280;30517;51.932;4.278;2024-01-27T01:51:01;103534.13;;;7.17;71.29
37298;BME280;30517;51.932;4.278;2024-01-27T01:53:45;103492.94;;;6.68;72.31
37298;BME280;30517;51.932;4.278;2024-01-27T01:56:28;103528.66;;;6.81;73.01
37298;BME280;30517;51.932;4.278;2024-01-27T01:59:09;103499.28;;;6.88;72.21
37298;BME280;30517;51.932;4.278;2024-01-27T02:01:50;103535.00;;;7.17;71.73
37298;BME280;30517;51.932;4.278;2024-01-27T02:04:39;103530.09;;;7.23;71.26
37298;BME280;30517;51.932;4.278;2024-01-27T02:07:20;103533.50;;;6.90;72.14
37298;BME280;30517;51.932;4.278;2024-01-27T02:10:02;103485.00;;;6.83;71.11
37298;BME280;30517;51.932;4.278;2024-01-27T02:12:44;103534.13;;;7.17;71.02
37298;BME280;30517;51.932;4.278;2024-01-27T02:15:25;103536.31;;;7.09;71.25
37298;BME280;30517;51.932;4.278;2024-01-27T02:18:06;103515.69;;;6.84;71.55
37298;BME280;30517;51.932;4.278;2024-01-27T02:20:47;103519.56;;;7.07;70.93
37298;BME280;30517;51.932;4.278;2024-01-27T02:23:28;103547.81;;;7.27;70.58
37298;BME280;30517;51.932;4.278;2024-01-27T02:26:08;103531.50;;;7.17;70.51
37298;BME280;30517;51.932;4.278;2024-01-27T02:28:49;103523.50;;;6.99;70.69
37298;BME280;30517;51.932;4.278;2024-01-27T02:31:31;103512.44;;;7.04;70.80
37298;BME280;30517;51.932;4.278;2024-01-27T02:34:11;103537.47;;;6.83;71.83
37298;BME280;30517;51.932;4.278;2024-01-27T02:36:52;103513.72;;;6.96;70.85
37298;BME280;30517;51.932;4.278;2024-01-27T02:39:34;103536.06;;;7.21;70.99
37298;BME280;30517;51.932;4.278;2024-01-27T02:42:15;103512.81;;;6.79;71.60
37298;BME280;30517;51.932;4.278;2024-01-27T02:44:55;103529.66;;;6.99;70.92
37298;BME280;30517;51.932;4.278;2024-01-27T02:47:37;103533.22;;;7.16;70.60
37298;BME280;30517;51.932;4.278;2024-01-27T02:50:18;103521.97;;;7.02;70.73
37298;BME280;30517;51.932;4.278;2024-01-27T02:52:59;103552.16;;;7.11;71.01
37298;BME280;30517;51.932;4.278;2024-01-27T02:55:40;103546.47;;;6.72;72.02
37298;BME280;30517;51.932;4.278;2024-01-27T02:58:21;103546.59;;;6.58;72.66
37298;BME280;30517;51.932;4.278;2024-01-27T03:01:02;103524.75;;;6.43;73.30
37298;BME280;30517;51.932;4.278;2024-01-27T03:03:43;103518.06;;;6.33;73.68
37298;BME280;30517;51.932;4.278;2024-01-27T03:06:24;103538.75;;;6.29;73.97
37298;BME280;30517;51.932;4.278;2024-01-27T03:09:05;103548.78;;;6.36;73.87
37298;BME280;30517;51.932;4.278;2024-01-27T03:11:46;103545.00;;;6.31;73.87
37298;BME280;30517;51.932;4.278;2024-01-27T03:14:27;103541.94;;;6.38;73.72
37298;BME280;30517;51.932;4.278;2024-01-27T03:17:08;103557.84;;;6.41;73.13
37298;BME280;30517;51.932;4.278;2024-01-27T03:19:49;103563.69;;;6.37;73.38
37298;BME280;30517;51.932;4.278;2024-01-27T03:22:30;103559.91;;;6.32;73.37
37298;BME280;30517;51.932;4.278;2024-01-27T03:25:12;103551.84;;;6.29;73.53
37298;BME280;30517;51.932;4.278;2024-01-27T03:27:53;103516.81;;;6.27;72.88
37298;BME280;30517;51.932;4.278;2024-01-27T03:30:34;103553.69;;;6.30;73.14
37298;BME280;30517;51.932;4.278;2024-01-27T03:33:15;103546.00;;;6.18;73.69
37298;BME280;30517;51.932;4.278;2024-01-27T03:35:56;103568.84;;;6.20;73.78
37298;BME280;30517;51.932;4.278;2024-01-27T03:38:37;103545.47;;;6.09;74.20
37298;BME280;30517;51.932;4.278;2024-01-27T03:41:19;103505.38;;;5.82;73.46
37298;BME280;30517;51.932;4.278;2024-01-27T03:44:00;103547.25;;;6.39;72.94
37298;BME280;30517;51.932;4.278;2024-01-27T03:46:41;103531.03;;;6.61;71.89
37298;BME280;30517;51.932;4.278;2024-01-27T03:49:22;103485.16;;;6.38;71.47
37298;BME280;30517;51.932;4.278;2024-01-27T03:52:03;103552.88;;;6.77;71.58
37298;BME280;30517;51.932;4.278;2024-01-27T03:54:45;103521.47;;;6.47;71.88
37298;BME280;30517;51.932;4.278;2024-01-27T03:57:26;103541.06;;;6.69;71.70
37298;BME280;30517;51.932;4.278;2024-01-27T04:00:07;103509.56;;;6.23;72.88
37298;BME280;30517;51.932;4.278;2024-01-27T04:02:48;103541.16;;;6.55;72.21
37298;BME280;30517;51.932;4.278;2024-01-27T04:05:30;103513.53;;;6.31;72.48
37298;BME280;30517;51.932;4.278;2024-01-27T04:08:11;103478.31;;;5.96;72.88
37298;BME280;30517;51.932;4.278;2024-01-27T04:10:52;103547.19;;;6.69;71.78
37298;BME280;30517;51.932;4.278;2024-01-27T04:13:33;103556.78;;;6.69;71.67
37298;BME280;30517;51.932;4.278;2024-01-27T04:16:15;103562.03;;;6.69;71.21
37298;BME280;30517;51.932;4.278;2024-01-27T04:18:56;103549.88;;;6.54;71.56
37298;BME280;30517;51.932;4.278;2024-01-27T04:21:37;103558.69;;;6.71;71.04
37298;BME280;30517;51.932;4.278;2024-01-27T04:24:18;103549.03;;;6.70;71.39
37298;BME280;30517;51.932;4.278;2024-01-27T04:26:59;103546.69;;;6.45;72.14
37298;BME280;30517;51.932;4.278;2024-01-27T04:29:42;103534.75;;;6.50;71.49
37298;BME280;30517;51.932;4.278;2024-01-27T04:32:23;103474.59;;;6.22;70.97
37298;BME280;30517;51.932;4.278;2024-01-27T04:35:06;103536.06;;;6.27;72.45
37298;BME280;30517;51.932;4.278;2024-01-27T04:37:48;103537.97;;;6.30;72.49
37298;BME280;30517;51.932;4.278;2024-01-27T04:40:30;103544.34;;;6.64;71.18
37298;BME280;30517;51.932;4.278;2024-01-27T04:43:15;103544.97;;;6.60;71.49
37298;BME280;30517;51.932;4.278;2024-01-27T04:45:56;103551.38;;;6.65;70.78
37298;BME280;30517;51.932;4.278;2024-01-27T04:48:37;103554.75;;;6.48;71.62
37298;BME280;30517;51.932;4.278;2024-01-27T04:51:18;103544.06;;;6.60;71.06
37298;BME280;30517;51.932;4.278;2024-01-27T04:53:59;103484.09;;;6.20;71.35
37298;BME280;30517;51.932;4.278;2024-01-27T04:56:39;103541.22;;;6.40;71.76
37298;BME280;30517;51.932;4.278;2024-01-27T04:59:20;103538.88;;;6.61;71.08
37298;BME280;30517;51.932;4.278;2024-01-27T05:02:01;103530.84;;;6.58;70.90
37298;BME280;30517;51.932;4.278;2024-01-27T05:04:42;103529.94;;;6.58;70.75
37298;BME280;30517;51.932;4.278;2024-01-27T05:07:23;103528.38;;;6.30;71.70
37298;BME280;30517;51.932;4.278;2024-01-27T05:10:05;103537.25;;;6.63;70.81
37298;BME280;30517;51.932;4.278;2024-01-27T05:12:46;103517.22;;;6.49;70.96
37298;BME280;30517;51.932;4.278;2024-01-27T05:15:27;103506.28;;;6.41;70.88
37298;BME280;30517;51.932;4.278;2024-01-27T05:18:07;103544.34;;;6.64;71.00
37298;BME280;30517;51.932;4.278;2024-01-27T05:20:50;103511.25;;;6.37;71.15
37298;BME280;30517;51.932;4.278;2024-01-27T05:23:31;103523.31;;;6.48;70.53
37298;BME280;30517;51.932;4.278;2024-01-27T05:26:12;103538.38;;;6.52;71.39
37298;BME280;30517;51.932;4.278;2024-01-27T05:28:53;103529.34;;;6.47;70.82
37298;BME280;30517;51.932;4.278;2024-01-27T05:31:34;103537.53;;;6.53;71.12
37298;BME280;30517;51.932;4.278;2024-01-27T05:34:15;103548.97;;;6.54;70.91
37298;BME280;30517;51.932;4.278;2024-01-27T05:36:56;103570.28;;;6.45;71.08
37298;BME280;30517;51.932;4.278;2024-01-27T05:39:37;103539.19;;;6.51;70.54
37298;BME280;30517;51.932;4.278;2024-01-27T05:42:18;103549.75;;;6.53;70.73
37298;BME280;30517;51.932;4.278;2024-01-27T05:44:58;103550.94;;;6.58;70.87
37298;BME280;30517;51.932;4.278;2024-01-27T05:47:40;103530.06;;;6.45;70.69
37298;BME280;30517;51.932;4.278;2024-01-27T05:50:21;103542.28;;;6.44;71.09
37298;BME280;30517;51.932;4.278;2024-01-27T05:53:02;103533.50;;;6.29;70.82
37298;BME280;30517;51.932;4.278;2024-01-27T05:55:43;103533.06;;;6.36;70.93
37298;BME280;30517;51.932;4.278;2024-01-27T05:58:26;103515.38;;;6.17;71.65
37298;BME280;30517;51.932;4.278;2024-01-27T06:01:09;103542.63;;;6.50;70.94
37298;BME280;30517;51.932;4.278;2024-01-27T06:03:51;103515.06;;;6.42;70.81
37298;BME280;30517;51.932;4.278;2024-01-27T06:06:32;103528.19;;;6.12;71.26
37298;BME280;30517;51.932;4.278;2024-01-27T06:09:13;103538.78;;;6.14;72.17
37298;BME280;30517;51.932;4.278;2024-01-27T06:11:54;103520.56;;;6.32;71.17
37298;BME280;30517;51.932;4.278;2024-01-27T06:14:36;103546.44;;;6.40;70.96
37298;BME280;30517;51.932;4.278;2024-01-27T06:17:17;103527.53;;;6.31;70.73
37298;BME280;30517;51.932;4.278;2024-01-27T06:19:58;103525.09;;;6.34;70.85
37298;BME280;30517;51.932;4.278;2024-01-27T06:22:39;103543.91;;;6.42;70.81
37298;BME280;30517;51.932;4.278;2024-01-27T06:25:20;103541.03;;;6.37;70.68
37298;BME280;30517;51.932;4.278;2024-01-27T06:28:02;103562.81;;;6.22;71.94
37298;BME280;30517;51.932;4.278;2024-01-27T06:30:43;103591.63;;;6.36;70.89
37298;BME280;30517;51.932;4.278;2024-01-27T06:33:24;103505.13;;;5.92;71.05
37298;BME280;30517;51.932;4.278;2024-01-27T06:36:05;103521.59;;;6.04;71.00
37298;BME280;30517;51.932;4.278;2024-01-27T06:38:49;103563.63;;;6.35;71.00
37298;BME280;30517;51.932;4.278;2024-01-27T06:41:30;103504.16;;;6.05;70.73
37298;BME280;30517;51.932;4.278;2024-01-27T06:44:11;103550.69;;;6.24;70.55
37298;BME280;30517;51.932;4.278;2024-01-27T06:46:52;103568.06;;;6.22;70.91
37298;BME280;30517;51.932;4.278;2024-01-27T06:49:33;103567.44;;;6.11;71.51
37298;BME280;30517;51.932;4.278;2024-01-27T06:52:14;103552.72;;;5.85;72.18
37298;BME280;30517;51.932;4.278;2024-01-27T06:54:55;103472.75;;;5.47;71.15
37298;BME280;30517;51.932;4.278;2024-01-27T06:57:37;103583.25;;;6.27;71.16
37298;BME280;30517;51.932;4.278;2024-01-27T07:00:18;103581.88;;;5.76;72.16
37298;BME280;30517;51.932;4.278;2024-01-27T07:03:01;103564.63;;;5.80;72.69
37298;BME280;30517;51.932;4.278;2024-01-27T07:05:43;103565.78;;;6.13;71.52
37298;BME280;30517;51.932;4.278;2024-01-27T07:08:24;103545.09;;;6.03;71.10
37298;BME280;30517;51.932;4.278;2024-01-27T07:11:05;103561.91;;;6.06;71.75
37298;BME280;30517;51.932;4.278;2024-01-27T07:13:46;103574.47;;;6.12;71.60
37298;BME280;30517;51.932;4.278;2024-01-27T07:16:27;103563.06;;;5.96;71.53
37298;BME280;30517;51.932;4.278;2024-01-27T07:19:08;103557.09;;;5.99;71.45
37298;BME280;30517;51.932;4.278;2024-01-27T07:21:50;103569.31;;;6.13;71.11
37298;BME280;30517;51.932;4.278;2024-01-27T07:24:32;103559.09;;;6.18;71.14
37298;BME280;30517;51.932;4.278;2024-01-27T07:27:13;103553.97;;;6.19;70.88
37298;BME280;30517;51.932;4.278;2024-01-27T07:29:54;103569.59;;;6.03;71.67
37298;BME280;30517;51.932;4.278;2024-01-27T07:32:36;103564.28;;;5.88;71.91
37298;BME280;30517;51.932;4.278;2024-01-27T07:35:17;103560.53;;;5.98;71.56
37298;BME280;30517;51.932;4.278;2024-01-27T07:37:58;103547.44;;;5.98;71.62
37298;BME280;30517;51.932;4.278;2024-01-27T07:40:39;103557.41;;;6.18;70.90
37298;BME280;30517;51.932;4.278;2024-01-27T07:43:20;103552.78;;;6.00;71.34
37298;BME280;30517;51.932;4.278;2024-01-27T07:46:01;103565.00;;;5.86;72.02
37298;BME280;30517;51.932;4.278;2024-01-27T07:48:43;103561.34;;;5.54;72.83
37298;BME280;30517;51.932;4.278;2024-01-27T07:51:24;103571.22;;;5.73;72.55
37298;BME280;30517;51.932;4.278;2024-01-27T07:54:06;103554.31;;;5.68;72.47
37298;BME280;30517;51.932;4.278;2024-01-27T07:56:48;103542.22;;;5.42;73.33
37298;BME280;30517;51.932;4.278;2024-01-27T07:59:29;103482.31;;;5.46;72.31
37298;BME280;30517;51.932;4.278;2024-01-27T08:02:10;103543.47;;;5.62;72.74
37298;BME280;30517;51.932;4.278;2024-01-27T08:04:51;103565.84;;;5.57;72.90
37298;BME280;30517;51.932;4.278;2024-01-27T08:07:32;103553.94;;;5.33;73.64
37298;BME280;30517;51.932;4.278;2024-01-27T08:10:13;103583.59;;;5.75;72.16
37298;BME280;30517;51.932;4.278;2024-01-27T08:12:55;103583.03;;;5.66;72.92
37298;BME280;30517;51.932;4.278;2024-01-27T08:15:39;103575.94;;;5.79;72.38
37298;BME280;30517;51.932;4.278;2024-01-27T08:18:21;103565.19;;;5.46;72.59
37298;BME280;30517;51.932;4.278;2024-01-27T08:21:02;103599.31;;;5.75;72.32
37298;BME280;30517;51.932;4.278;2024-01-27T08:23:43;103596.94;;;5.65;72.37
37298;BME280;30517;51.932;4.278;2024-01-27T08:26:24;103604.25;;;5.71;72.67
37298;BME280;30517;51.932;4.278;2024-01-27T08:29:06;103599.25;;;5.61;72.50
37298;BME280;30517;51.932;4.278;2024-01-27T08:31:47;103575.50;;;5.29;73.40
37298;BME280;30517;51.932;4.278;2024-01-27T08:34:28;103588.56;;;5.43;72.82
37298;BME280;30517;51.932;4.278;2024-01-27T08:37:17;103606.72;;;5.83;71.45
37298;BME280;30517;51.932;4.278;2024-01-27T08:40:01;103604.16;;;5.69;71.89
37298;BME280;30517;51.932;4.278;2024-01-27T08:42:42;103615.91;;;5.48;73.37
37298;BME280;30517;51.932;4.278;2024-01-27T08:45:23;103609.78;;;5.47;72.93
37298;BME280;30517;51.932;4.278;2024-01-27T08:48:05;103606.31;;;5.20;73.70
37298;BME280;30517;51.932;4.278;2024-01-27T08:50:46;103595.81;;;5.33;73.94
37298;BME280;30517;51.932;4.278;2024-01-27T08:53:26;103547.00;;;4.93;73.79
37298;BME280;30517;51.932;4.278;2024-01-27T08:56:07;103602.63;;;5.45;73.07
37298;BME280;30517;51.932;4.278;2024-01-27T08:58:48;103580.50;;;5.40;73.21
37298;BME280;30517;51.932;4.278;2024-01-27T09:01:30;103555.19;;;5.25;72.81
37298;BME280;30517;51.932;4.278;2024-01-27T09:04:10;103586.13;;;5.46;72.79
37298;BME280;30517;51.932;4.278;2024-01-27T09:06:51;103589.34;;;5.42;73.10
37298;BME280;30517;51.932;4.278;2024-01-27T09:09:32;103592.31;;;5.33;73.06
37298;BME280;30517;51.932;4.278;2024-01-27T09:12:13;103622.28;;;5.38;73.09
37298;BME280;30517;51.932;4.278;2024-01-27T09:14:54;103594.25;;;5.50;72.34
37298;BME280;30517;51.932;4.278;2024-01-27T09:17:35;103606.88;;;5.43;73.31
37298;BME280;30517;51.932;4.278;2024-01-27T09:20:16;103628.81;;;5.45;73.19
37298;BME280;30517;51.932;4.278;2024-01-27T09:22:57;103607.22;;;5.21;73.39
37298;BME280;30517;51.932;4.278;2024-01-27T09:25:38;103604.19;;;5.28;73.27
37298;BME280;30517;51.932;4.278;2024-01-27T09:28:19;103553.44;;;4.98;73.39
37298;BME280;30517;51.932;4.278;2024-01-27T09:31:00;103591.63;;;5.22;73.32
37298;BME280;30517;51.932;4.278;2024-01-27T09:33:41;103633.72;;;5.53;72.92
37298;BME280;30517;51.932;4.278;2024-01-27T09:36:22;103618.66;;;5.36;73.36
37298;BME280;30517;51.932;4.278;2024-01-27T09:39:03;103609.28;;;5.40;72.79
37298;BME280;30517;51.932;4.278;2024-01-27T09:41:45;103589.34;;;5.00;73.73
37298;BME280;30517;51.932;4.278;2024-01-27T09:44:29;103618.50;;;5.20;73.21
37298;BME280;30517;51.932;4.278;2024-01-27T09:47:13;103648.25;;;5.48;72.96
37298;BME280;30517;51.932;4.278;2024-01-27T09:49:54;103644.94;;;5.38;73.42
37298;BME280;30517;51.932;4.278;2024-01-27T09:52:35;103643.94;;;5.36;73.36
37298;BME280;30517;51.932;4.278;2024-01-27T09:55:16;103645.88;;;5.25;73.52
37298;BME280;30517;51.932;4.278;2024-01-27T09:57:57;103646.44;;;5.34;73.39
37298;BME280;30517;51.932;4.278;2024-01-27T10:00:38;103638.31;;;5.29;73.09
37298;BME280;30517;51.932;4.278;2024-01-27T10:03:20;103584.19;;;5.15;72.55
37298;BME280;30517;51.932;4.278;2024-01-27T10:06:02;103645.41;;;5.45;72.95
37298;BME280;30517;51.932;4.278;2024-01-27T10:08:54;103660.50;;;5.63;72.12
37298;BME280;30517;51.932;4.278;2024-01-27T10:11:36;103660.41;;;5.48;72.72
37298;BME280;30517;51.932;4.278;2024-01-27T10:14:21;103672.09;;;5.40;72.65
37298;BME280;30517;51.932;4.278;2024-01-27T10:17:02;103648.34;;;5.50;73.08
37298;BME280;30517;51.932;4.278;2024-01-27T10:19:43;103618.88;;;5.26;73.30
37298;BME280;30517;51.932;4.278;2024-01-27T10:22:26;103636.09;;;5.22;73.08
37298;BME280;30517;51.932;4.278;2024-01-27T10:25:08;103558.56;;;4.70;73.38
37298;BME280;30517;51.932;4.278;2024-01-27T10:27:49;103658.81;;;5.50;72.92
37298;BME280;30517;51.932;4.278;2024-01-27T10:30:30;103631.09;;;5.53;72.54
37298;BME280;30517;51.932;4.278;2024-01-27T10:33:12;103650.94;;;5.50;72.29
37298;BME280;30517;51.932;4.278;2024-01-27T10:35:57;103648.84;;;5.44;73.27
37298;BME280;30517;51.932;4.278;2024-01-27T10:38:39;103633.59;;;5.24;73.29
37298;BME280;30517;51.932;4.278;2024-01-27T10:41:23;103656.19;;;5.50;72.90
37298;BME280;30517;51.932;4.278;2024-01-27T10:44:08;103671.13;;;5.38;72.84
37298;BME280;30517;51.932;4.278;2024-01-27T10:46:52;103671.03;;;5.36;73.49
37298;BME280;30517;51.932;4.278;2024-01-27T10:49:36;103661.94;;;5.44;73.16
37298;BME280;30517;51.932;4.278;2024-01-27T10:52:20;103618.84;;;4.98;72.79
37298;BME280;30517;51.932;4.278;2024-01-27T10:55:04;103643.47;;;5.56;72.82
37298;BME280;30517;51.932;4.278;2024-01-27T10:57:50;103654.09;;;5.44;73.15
37298;BME280;30517;51.932;4.278;2024-01-27T11:00:33;103653.38;;;5.47;73.07
37298;BME280;30517;51.932;4.278;2024-01-27T11:03:15;103656.53;;;5.69;72.07
37298;BME280;30517;51.932;4.278;2024-01-27T11:05:58;103655.97;;;5.60;72.65
37298;BME280;30517;51.932;4.278;2024-01-27T11:08:40;103635.59;;;5.69;71.93
37298;BME280;30517;51.932;4.278;2024-01-27T11:11:21;103650.13;;;5.92;71.21
37298;BME280;30517;51.932;4.278;2024-01-27T11:14:02;103646.53;;;5.49;72.74
37298;BME280;30517;51.932;4.278;2024-01-27T11:16:44;103653.06;;;5.55;72.51
37298;BME280;30517;51.932;4.278;2024-01-27T11:19:27;103657.50;;;5.57;72.63
37298;BME280;30517;51.932;4.278;2024-01-27T11:22:08;103662.75;;;5.85;71.78
37298;BME280;30517;51.932;4.278;2024-01-27T11:25:14;103648.94;;;5.59;72.31
37298;BME280;30517;51.932;4.278;2024-01-27T11:27:55;103597.00;;;5.39;72.95
37298;BME280;30517;51.932;4.278;2024-01-27T11:30:36;103626.16;;;5.58;72.50
37298;BME280;30517;51.932;4.278;2024-01-27T11:33:20;103617.97;;;5.39;72.73
37298;BME280;30517;51.932;4.278;2024-01-27T11:38:43;103635.38;;;5.66;72.48
37298;BME280;30517;51.932;4.278;2024-01-27T11:41:27;103641.56;;;5.53;73.18
37298;BME280;30517;51.932;4.278;2024-01-27T11:44:12;103638.06;;;5.94;71.67
37298;BME280;30517;51.932;4.278;2024-01-27T11:46:55;103641.75;;;5.98;71.71
37298;BME280;30517;51.932;4.278;2024-01-27T11:49:36;103622.75;;;5.59;72.36
37298;BME280;30517;51.932;4.278;2024-01-27T11:52:17;103592.59;;;5.66;71.65
37298;BME280;30517;51.932;4.278;2024-01-27T11:54:59;103629.63;;;5.72;72.12
37298;BME280;30517;51.932;4.278;2024-01-27T11:57:43;103605.56;;;5.64;72.43
37298;BME280;30517;51.932;4.278;2024-01-27T12:00:24;103612.22;;;6.01;70.96
37298;BME280;30517;51.932;4.278;2024-01-27T12:03:05;103612.13;;;5.71;71.96
37298;BME280;30517;51.932;4.278;2024-01-27T12:05:46;103622.81;;;5.61;73.26
37298;BME280;30517;51.932;4.278;2024-01-27T12:08:27;103626.94;;;5.70;72.93
37298;BME280;30517;51.932;4.278;2024-01-27T12:11:08;103606.63;;;5.53;72.81
37298;BME280;30517;51.932;4.278;2024-01-27T12:13:49;103592.44;;;5.77;72.16
37298;BME280;30517;51.932;4.278;2024-01-27T12:16:30;103596.72;;;5.90;71.97
37298;BME280;30517;51.932;4.278;2024-01-27T12:19:11;103597.59;;;6.04;71.25
37298;BME280;30517;51.932;4.278;2024-01-27T12:21:52;103553.16;;;5.77;71.42
37298;BME280;30517;51.932;4.278;2024-01-27T12:24:33;103576.16;;;5.96;71.13
37298;BME280;30517;51.932;4.278;2024-01-27T12:27:16;103588.28;;;6.09;71.54
37298;BME280;30517;51.932;4.278;2024-01-27T12:29:57;103589.75;;;5.91;72.27
37298;BME280;30517;51.932;4.278;2024-01-27T12:32:38;103545.88;;;5.87;71.60
37298;BME280;30517;51.932;4.278;2024-01-27T12:35:19;103584.88;;;6.10;71.37
37298;BME280;30517;51.932;4.278;2024-01-27T12:38:00;103581.06;;;6.05;71.76
37298;BME280;30517;51.932;4.278;2024-01-27T12:40:42;103591.38;;;6.17;70.67
37298;BME280;30517;51.932;4.278;2024-01-27T12:43:22;103582.69;;;6.18;70.97
37298;BME280;30517;51.932;4.278;2024-01-27T12:46:03;103595.06;;;6.20;71.31
37298;BME280;30517;51.932;4.278;2024-01-27T12:48:45;103590.22;;;6.27;70.71
37298;BME280;30517;51.932;4.278;2024-01-27T12:51:26;103575.47;;;6.14;70.74
37298;BME280;30517;51.932;4.278;2024-01-27T12:54:07;103572.31;;;6.19;70.97
37298;BME280;30517;51.932;4.278;2024-01-27T12:56:48;103569.03;;;6.24;70.73
37298;BME280;30517;51.932;4.278;2024-01-27T12:59:29;103542.28;;;6.14;70.88
37298;BME280;30517;51.932;4.278;2024-01-27T13:02:10;103567.59;;;6.14;71.56
37298;BME280;30517;51.932;4.278;2024-01-27T13:04:51;103579.34;;;6.20;71.38
37298;BME280;30517;51.932;4.278;2024-01-27T13:07:32;103543.72;;;6.09;71.24
37298;BME280;30517;51.932;4.278;2024-01-27T13:10:14;103571.78;;;6.40;70.72
37298;BME280;30517;51.932;4.278;2024-01-27T13:12:54;103549.06;;;6.26;70.73
37298;BME280;30517;51.932;4.278;2024-01-27T13:15:35;103569.41;;;6.30;71.07
37298;BME280;30517;51.932;4.278;2024-01-27T13:18:16;103556.13;;;6.12;71.31
37298;BME280;30517;51.932;4.278;2024-01-27T13:21:00;103573.22;;;6.35;70.99
37298;BME280;30517;51.932;4.278;2024-01-27T13:23:41;103535.50;;;6.18;70.62
37298;BME280;30517;51.932;4.278;2024-01-27T13:26:22;103578.72;;;6.54;70.42
37298;BME280;30517;51.932;4.278;2024-01-27T13:29:06;103557.84;;;6.41;70.02
37298;BME280;30517;51.932;4.278;2024-01-27T13:31:48;103573.28;;;6.51;70.21
37298;BME280;30517;51.932;4.278;2024-01-27T13:34:29;103565.25;;;6.48;70.31
37298;BME280;30517;51.932;4.278;2024-01-27T13:37:11;103578.16;;;6.45;70.65
37298;BME280;30517;51.932;4.278;2024-01-27T13:39:52;103575.09;;;6.52;70.46
37298;BME280;30517;51.932;4.278;2024-01-27T13:42:33;103565.13;;;6.61;70.23
37298;BME280;30517;51.932;4.278;2024-01-27T13:45:14;103555.28;;;6.57;70.27
37298;BME280;30517;51.932;4.278;2024-01-27T13:47:55;103526.88;;;6.50;70.08
37298;BME280;30517;51.932;4.278;2024-01-27T13:50:36;103553.66;;;6.59;70.05
37298;BME280;30517;51.932;4.278;2024-01-27T13:53:17;103564.59;;;6.67;70.21
37298;BME280;30517;51.932;4.278;2024-01-27T13:55:58;103575.19;;;6.54;71.02
37298;BME280;30517;51.932;4.278;2024-01-27T13:58:41;103580.56;;;6.72;70.28
37298;BME280;30517;51.932;4.278;2024-01-27T14:01:22;103557.91;;;6.57;70.27
37298;BME280;30517;51.932;4.278;2024-01-27T14:04:03;103566.66;;;6.73;70.22
37298;BME280;30517;51.932;4.278;2024-01-27T14:06:44;103558.97;;;6.61;70.53
37298;BME280;30517;51.932;4.278;2024-01-27T14:09:25;103557.13;;;6.75;69.84
37298;BME280;30517;51.932;4.278;2024-01-27T14:12:08;103558.41;;;6.81;69.99
37298;BME280;30517;51.932;4.278;2024-01-27T14:14:49;103545.47;;;6.70;69.77
37298;BME280;30517;51.932;4.278;2024-01-27T14:17:30;103533.28;;;6.70;69.78